Friday, May 25, 2018, 8:55 AM EDT
Back to Local

KTTN, Trenton Mercer County Airport

Location: Trenton, NJ, United States Lat: 40.283
Local Time: 8:55 AM EDT (12:55 GMT) Lon: -74.817
Time Zone: US/Eastern Elev: 213 ft

Show me the last for .
Show Decoded

2018-05-25 07:53 METAR KTTN 251153Z 22005KT 10SM CLR 19/15 A3007 RMK AO2 SLP176 T01890150 10189
                 20133 50002 =
2018-05-25 06:53 METAR KTTN 251053Z 00000KT 10SM CLR 16/13 A3008 RMK AO2 SLP178 T01560133 =
2018-05-25 05:53 METAR KTTN 250953Z 22003KT 10SM CLR 14/12 A3008 RMK AO2 SLP177 T01390117 =
2018-05-25 04:53 METAR KTTN 250853Z AUTO 00000KT 10SM CLR 15/12 A3007 RMK AO2 SLP174 T01500117
                 56009 =
2018-05-25 03:53 METAR KTTN 250753Z AUTO 00000KT 10SM CLR 16/11 A3007 RMK AO2 SLP177 T01610111 =
2018-05-25 02:53 METAR KTTN 250653Z AUTO 20003KT 10SM CLR 16/10 A3008 RMK AO2 SLP180 T01610100 =
2018-05-25 01:53 METAR KTTN 250553Z AUTO 23003KT 10SM CLR 17/09 A3009 RMK AO2 SLP184 T01720094
                 10261 20172 58005 =
2018-05-25 00:53 METAR KTTN 250453Z AUTO 24003KT 10SM CLR 19/09 A3011 RMK AO2 SLP189 T01890089
                 402890156 =
2018-05-24 23:53 METAR KTTN 250353Z AUTO 21004KT 10SM CLR 18/11 A3011 RMK AO2 SLP189 T01780106 =
2018-05-24 22:53 METAR KTTN 250253Z AUTO 20007KT 10SM CLR 20/11 A3011 RMK AO2 SLP189 T02000106
                 51011 =
2018-05-24 21:53 METAR KTTN 250153Z 19006KT 10SM CLR 21/09 A3010 RMK AO2 SLP187 T02060094 =
2018-05-24 20:53 METAR KTTN 250053Z 17010KT 10SM CLR 23/10 A3009 RMK AO2 SLP181 T02280100 =
2018-05-24 19:53 METAR KTTN 242353Z 22004KT 10SM CLR 26/09 A3008 RMK AO2 SLP177 T02560089 10289
                 20256 55005 =
2018-05-24 18:53 METAR KTTN 242253Z 23007KT 10SM CLR 27/08 A3007 RMK AO2 SLP177 T02670083 =
2018-05-24 17:53 METAR KTTN 242153Z 23004KT 10SM CLR 28/08 A3008 RMK AO2 SLP179 T02780078 =
2018-05-24 16:53 METAR KTTN 242053Z 22005KT 10SM CLR 28/09 A3009 RMK AO2 SLP183 T02780094 58011 =
2018-05-24 15:53 METAR KTTN 241953Z VRB03KT 10SM CLR 28/07 A3011 RMK AO2 SLP189 T02830072 =
2018-05-24 14:53 METAR KTTN 241853Z 00000KT 10SM CLR 27/08 A3012 RMK AO2 SLP192 T02720083 =
2018-05-24 13:53 METAR KTTN 241753Z VRB03KT 10SM CLR 27/08 A3012 RMK AO2 SLP194 T02720083 10272
                 20200 58009 =
2018-05-24 12:53 METAR KTTN 241653Z 36010G17KT 10SM CLR 27/07 A3013 RMK AO2 SLP197 T02670067 =
2018-05-24 11:53 METAR KTTN 241553Z 35009KT 10SM CLR 26/07 A3014 RMK AO2 SLP201 T02610067 =
2018-05-24 10:53 METAR KTTN 241453Z 02007KT 10SM CLR 24/07 A3015 RMK AO2 SLP203 T02440072 50003 =
2018-05-24 09:53 METAR KTTN 241353Z 36010G17KT 10SM CLR 23/03 A3015 RMK AO2 SLP204 T02330033 =

Support USWX by starting your Amazon purchase here.